createdAt,value
2022-12-12T00:02:24.088Z,98306.13
2022-12-12T00:07:27.044Z,98307.91
2022-12-12T00:12:31.304Z,98305.34
2022-12-12T00:17:34.372Z,98311.16
2022-12-12T00:22:37.343Z,98308.81
2022-12-12T00:27:41.674Z,98303.59
2022-12-12T00:32:44.621Z,98296.66
2022-12-12T00:37:47.835Z,98289.00
2022-12-12T00:42:52.114Z,98292.78
2022-12-12T00:47:55.951Z,98299.03
2022-12-12T00:52:59.424Z,98298.13
2022-12-12T00:58:03.714Z,98308.34
2022-12-12T01:03:06.695Z,98305.50
2022-12-12T01:08:09.673Z,98313.66
2022-12-12T01:13:13.928Z,98315.84
2022-12-12T01:18:16.939Z,98311.59
2022-12-12T01:23:19.893Z,98302.94
2022-12-12T01:28:24.151Z,98306.69
2022-12-12T01:33:27.585Z,98308.59
2022-12-12T01:38:30.526Z,98321.50
2022-12-12T01:43:35.235Z,98322.06
2022-12-12T01:48:43.035Z,98311.50
2022-12-12T01:53:47.169Z,98314.69
2022-12-12T01:58:54.216Z,98319.50
2022-12-12T02:03:58.236Z,98318.59
2022-12-12T02:09:05.035Z,98326.38
2022-12-12T02:14:09.409Z,98322.41
2022-12-12T02:19:53.361Z,98314.94
2022-12-12T02:25:17.345Z,98321.78
2022-12-12T02:30:28.023Z,98308.28
2022-12-12T02:35:42.844Z,98315.56
2022-12-12T02:40:52.922Z,98312.56
2022-12-12T02:45:59.989Z,98322.31
2022-12-12T02:51:07.733Z,98312.81
2022-12-12T02:56:50.591Z,98316.88
2022-12-12T03:02:22.422Z,98312.19
2022-12-12T03:07:50.078Z,98324.81
2022-12-12T03:13:00.833Z,98315.34
2022-12-12T03:18:17.613Z,98310.50
2022-12-12T03:23:28.434Z,98305.38
2022-12-12T03:28:35.923Z,98308.81
2022-12-12T03:33:43.296Z,98312.44
2022-12-12T03:38:57.033Z,98310.47
2022-12-12T03:44:06.825Z,98302.94
2022-12-12T03:49:14.185Z,98309.00
2022-12-12T03:54:23.695Z,98307.81
2022-12-12T03:59:34.000Z,98312.38
2022-12-12T04:04:42.875Z,98313.22
2022-12-12T04:10:04.710Z,98311.50
2022-12-12T04:15:32.302Z,98308.84
2022-12-12T04:21:01.573Z,98311.25
2022-12-12T04:26:30.728Z,98305.81
2022-12-12T04:31:37.718Z,98309.16
2022-12-12T04:36:42.435Z,98312.91
2022-12-12T04:41:49.669Z,98323.72
2022-12-12T04:46:56.208Z,98318.38
2022-12-12T04:52:03.662Z,98320.94
2022-12-12T04:57:11.449Z,98328.84
2022-12-12T05:02:25.636Z,98330.13
2022-12-12T05:07:39.750Z,98335.00
2022-12-12T05:12:49.269Z,98335.94
2022-12-12T05:17:58.123Z,98340.66
2022-12-12T05:23:01.104Z,98349.91
2022-12-12T05:28:05.798Z,98344.44
2022-12-12T05:33:08.747Z,98348.56
2022-12-12T05:38:11.695Z,98345.25
2022-12-12T05:43:16.012Z,98346.31
2022-12-12T05:48:24.102Z,98348.69
2022-12-12T05:53:27.567Z,98361.69
2022-12-12T05:58:31.858Z,98362.22
2022-12-12T06:03:35.477Z,98360.91
2022-12-12T06:08:38.567Z,98355.94
2022-12-12T06:13:42.891Z,98359.91
2022-12-12T06:18:46.347Z,98364.41
2022-12-12T06:23:49.830Z,98366.03
2022-12-12T06:28:54.164Z,98369.28
2022-12-12T06:33:57.113Z,98370.03
2022-12-12T06:39:02.096Z,98380.78
2022-12-12T06:44:07.214Z,98383.88
2022-12-12T06:49:10.611Z,98391.47
2022-12-12T06:54:14.335Z,98386.78
2022-12-12T06:59:18.715Z,98393.28
2022-12-12T07:04:21.575Z,98396.00
2022-12-12T07:09:24.556Z,98400.00
2022-12-12T07:14:28.810Z,98406.06
2022-12-12T07:19:31.713Z,98416.19
2022-12-12T07:24:34.661Z,98421.38
2022-12-12T07:29:38.956Z,98424.66
2022-12-12T07:34:41.880Z,98427.78
2022-12-12T07:39:44.806Z,98441.63
2022-12-12T07:44:49.065Z,98432.97
2022-12-12T07:49:52.015Z,98436.41
2022-12-12T07:54:55.034Z,98431.44
2022-12-12T07:59:59.357Z,98443.88
2022-12-12T08:05:02.378Z,98446.56
2022-12-12T08:10:06.225Z,98444.53
2022-12-12T08:15:16.256Z,98446.81
2022-12-12T08:20:19.219Z,98448.00
2022-12-12T08:25:22.162Z,98456.47
2022-12-12T08:30:26.512Z,98458.69
2022-12-12T08:35:30.607Z,98459.78
2022-12-12T08:40:35.926Z,98469.59
2022-12-12T08:45:40.590Z,98465.88
2022-12-12T08:50:43.723Z,98460.72
2022-12-12T08:55:46.849Z,98464.97
2022-12-12T09:00:51.258Z,98485.13
2022-12-12T09:05:54.159Z,98481.00
2022-12-12T09:10:57.048Z,98484.22
2022-12-12T09:16:01.427Z,98493.03
2022-12-12T09:21:04.882Z,98502.59
2022-12-12T09:26:09.214Z,98491.13
2022-12-12T09:31:14.521Z,98496.91
2022-12-12T09:36:17.870Z,98507.94
2022-12-12T09:41:22.628Z,98508.84
2022-12-12T09:46:34.453Z,98507.22
2022-12-12T09:51:37.815Z,98499.72
2022-12-12T09:56:48.841Z,98501.16
2022-12-12T10:02:05.204Z,98503.50
2022-12-12T10:07:17.782Z,98494.38
2022-12-12T10:12:23.014Z,98498.81
2022-12-12T10:17:31.454Z,98511.69
2022-12-12T10:22:41.375Z,98506.09
2022-12-12T10:27:44.711Z,98520.56
2022-12-12T10:33:10.445Z,98509.38
2022-12-12T10:38:32.522Z,98513.16
2022-12-12T10:43:45.546Z,98518.66
2022-12-12T10:48:50.364Z,98515.59
2022-12-12T10:53:53.680Z,98514.81
2022-12-12T10:58:58.628Z,98522.28
2022-12-12T11:04:03.538Z,98516.19
2022-12-12T11:09:10.069Z,98504.56
2022-12-12T11:14:28.074Z,98509.72
2022-12-12T11:19:39.963Z,98511.19
2022-12-12T11:24:46.487Z,98512.56
2022-12-12T11:29:52.603Z,98513.03
2022-12-12T11:34:59.315Z,98517.03
2022-12-12T11:40:02.526Z,98519.13
2022-12-12T11:45:20.891Z,98518.66
2022-12-12T11:50:27.124Z,98521.31
2022-12-12T11:55:40.505Z,98516.59
2022-12-12T12:00:50.709Z,98520.25
2022-12-12T12:06:09.751Z,98515.56
2022-12-12T12:11:22.781Z,98509.44
2022-12-12T12:16:36.682Z,98516.72
2022-12-12T12:21:49.107Z,98516.13
2022-12-12T12:27:02.055Z,98514.59
2022-12-12T12:32:13.974Z,98510.00
2022-12-12T12:37:32.986Z,98516.44
2022-12-12T12:42:51.671Z,98524.72
2022-12-12T12:47:59.976Z,98520.56
2022-12-12T12:53:08.343Z,98522.13
2022-12-12T12:58:19.707Z,98522.91
2022-12-12T13:03:28.566Z,98523.28
2022-12-12T13:08:40.795Z,98525.56
2022-12-12T13:13:48.942Z,98533.97
2022-12-12T13:19:03.593Z,98531.28
2022-12-12T13:24:15.119Z,98533.97
2022-12-12T13:29:33.741Z,98544.78
2022-12-12T13:34:42.194Z,98550.03
2022-12-12T13:39:47.739Z,98550.63
2022-12-12T13:44:51.054Z,98556.72
2022-12-12T13:49:55.496Z,98556.56
2022-12-12T13:55:22.415Z,98569.06
2022-12-12T14:00:27.111Z,98568.97
2022-12-12T14:05:32.628Z,98574.78
2022-12-12T14:10:40.870Z,98581.50
2022-12-12T14:15:45.527Z,98581.84
2022-12-12T14:20:59.726Z,98583.19
2022-12-12T14:26:42.405Z,98591.78
2022-12-12T14:31:54.135Z,98587.75
2022-12-12T14:37:29.793Z,98593.34
2022-12-12T14:43:15.319Z,98603.34
2022-12-12T14:48:20.212Z,98600.75
2022-12-12T14:53:25.806Z,98587.59
2022-12-12T14:58:32.275Z,98605.63
2022-12-12T15:03:40.325Z,98611.38
2022-12-12T15:08:43.714Z,98620.69
2022-12-12T15:13:56.456Z,98621.53
2022-12-12T15:19:01.017Z,98637.13
2022-12-12T15:24:04.139Z,98648.06
2022-12-12T15:29:09.619Z,98661.56
2022-12-12T15:34:31.531Z,98665.25
2022-12-12T15:39:34.693Z,98667.00
2022-12-12T15:44:39.511Z,98658.25
2022-12-12T15:49:44.839Z,98651.47
2022-12-12T15:54:51.059Z,98659.84
2022-12-12T15:59:58.260Z,98679.50
2022-12-12T16:05:05.832Z,98677.13
2022-12-12T16:10:29.918Z,98678.81
2022-12-12T16:15:36.850Z,98685.72
2022-12-12T16:20:46.314Z,98686.25
2022-12-12T16:25:49.498Z,98693.72
2022-12-12T16:30:57.232Z,98693.47
2022-12-12T16:36:01.669Z,98691.44
2022-12-12T16:41:10.228Z,98702.09
2022-12-12T16:46:20.079Z,98708.94
2022-12-12T16:51:28.935Z,98713.69
2022-12-12T16:56:32.059Z,98717.19
2022-12-12T17:01:38.923Z,98719.50
2022-12-12T17:06:42.009Z,98719.00
2022-12-12T17:11:45.622Z,98725.59
2022-12-12T17:16:50.078Z,98722.31
2022-12-12T17:21:53.008Z,98728.00
2022-12-12T17:26:55.970Z,98728.00
2022-12-12T17:32:00.292Z,98727.88
2022-12-12T17:37:03.304Z,98724.34
2022-12-12T17:42:06.430Z,98737.16
2022-12-12T17:47:10.697Z,98727.41
2022-12-12T17:52:13.822Z,98739.88
2022-12-12T17:57:16.773Z,98743.28
2022-12-12T18:02:21.458Z,98744.88
2022-12-12T18:07:24.454Z,98745.53
2022-12-12T18:12:27.418Z,98747.84
2022-12-12T18:17:31.736Z,98742.59
2022-12-12T18:22:36.488Z,98741.78
2022-12-12T18:27:40.337Z,98752.81
2022-12-12T18:32:46.271Z,98753.41
2022-12-12T18:37:49.352Z,98752.78
2022-12-12T18:42:52.329Z,98760.56
2022-12-12T18:47:56.692Z,98753.22
2022-12-12T18:52:59.634Z,98760.78
2022-12-12T18:58:03.979Z,98764.09
2022-12-12T19:03:08.271Z,98761.16
2022-12-12T19:08:12.276Z,98773.41
2022-12-12T19:13:15.191Z,98766.72
2022-12-12T19:18:19.642Z,98773.19
2022-12-12T19:23:22.588Z,98766.34
2022-12-12T19:28:25.508Z,98758.53
2022-12-12T19:33:29.882Z,98766.13
2022-12-12T19:38:32.822Z,98763.66
2022-12-12T19:43:36.124Z,98765.19
2022-12-12T19:48:41.053Z,98772.75
2022-12-12T19:53:46.144Z,98778.72
2022-12-12T19:58:50.240Z,98769.81
2022-12-12T20:03:56.275Z,98779.00
2022-12-12T20:09:00.101Z,98771.69
2022-12-12T20:14:03.328Z,98775.03
2022-12-12T20:19:07.729Z,98780.16
2022-12-12T20:24:10.959Z,98778.25
2022-12-12T20:29:15.252Z,98778.38
2022-12-12T20:34:24.885Z,98765.03
2022-12-12T20:39:28.162Z,98758.41
2022-12-12T20:44:31.094Z,98767.56
2022-12-12T20:49:35.405Z,98777.03
2022-12-12T20:54:38.343Z,98781.50
2022-12-12T20:59:41.260Z,98782.44
2022-12-12T21:04:45.686Z,98787.00
2022-12-12T21:09:48.595Z,98780.78
2022-12-12T21:14:51.495Z,98773.13
2022-12-12T21:19:55.805Z,98778.66
2022-12-12T21:24:58.704Z,98776.19
2022-12-12T21:30:01.611Z,98779.69
2022-12-12T21:35:06.634Z,98783.88
2022-12-12T21:40:11.054Z,98792.94
2022-12-12T21:45:16.454Z,98795.09
2022-12-12T21:50:22.772Z,98790.22
2022-12-12T21:55:27.683Z,98788.84
2022-12-12T22:00:30.695Z,98785.88
2022-12-12T22:05:34.955Z,98795.25
2022-12-12T22:10:38.323Z,98807.50
2022-12-12T22:15:41.274Z,98799.53
2022-12-12T22:20:46.268Z,98796.97
2022-12-12T22:25:49.242Z,98780.91
2022-12-12T22:30:52.207Z,98782.44
2022-12-12T22:35:59.526Z,98774.47
2022-12-12T22:41:02.512Z,98774.88
2022-12-12T22:46:07.574Z,98779.19
2022-12-12T22:51:16.870Z,98773.78
2022-12-12T22:56:19.930Z,98777.00
2022-12-12T23:01:25.339Z,98779.19
2022-12-12T23:06:31.242Z,98776.97
2022-12-12T23:11:35.720Z,98774.75
2022-12-12T23:16:38.727Z,98766.03
2022-12-12T23:21:43.446Z,98774.25
2022-12-12T23:26:47.261Z,98773.13
2022-12-12T23:31:50.447Z,98771.50
2022-12-12T23:36:56.715Z,98779.53
2022-12-12T23:41:59.584Z,98764.78
2022-12-12T23:47:03.835Z,98764.50
2022-12-12T23:52:08.128Z,98767.22
2022-12-12T23:57:12.156Z,98773.47
